sensor_id;sensor_type;location;lat;lon;timestamp;temperature;humidity
35244;DHT22;37916;52.160;21.066;2023-05-07T00:05:22;5.30;93.70
35244;DHT22;37916;52.160;21.066;2023-05-07T00:15:23;5.30;93.70
35244;DHT22;37916;52.160;21.066;2023-05-07T00:25:23;5.30;93.70
35244;DHT22;37916;52.160;21.066;2023-05-07T00:35:24;5.30;93.70
35244;DHT22;37916;52.160;21.066;2023-05-07T00:45:26;5.30;93.70
35244;DHT22;37916;52.160;21.066;2023-05-07T00:55:26;5.20;93.70
35244;DHT22;37916;52.160;21.066;2023-05-07T01:05:27;5.30;93.70
35244;DHT22;37916;52.160;21.066;2023-05-07T01:15:28;5.20;93.70
35244;DHT22;37916;52.160;21.066;2023-05-07T01:25:28;5.20;93.70
35244;DHT22;37916;52.160;21.066;2023-05-07T01:35:30;5.10;93.70
35244;DHT22;37916;52.160;21.066;2023-05-07T01:45:32;5.20;93.80
35244;DHT22;37916;52.160;21.066;2023-05-07T01:55:34;5.20;93.70
35244;DHT22;37916;52.160;21.066;2023-05-07T02:05:36;5.20;93.80
35244;DHT22;37916;52.160;21.066;2023-05-07T02:15:37;5.10;93.80
35244;DHT22;37916;52.160;21.066;2023-05-07T02:25:38;5.10;93.80
35244;DHT22;37916;52.160;21.066;2023-05-07T02:35:38;5.10;93.80
35244;DHT22;37916;52.160;21.066;2023-05-07T02:45:39;5.00;93.80
35244;DHT22;37916;52.160;21.066;2023-05-07T02:55:39;5.30;93.80
35244;DHT22;37916;52.160;21.066;2023-05-07T03:05:40;5.10;93.80
35244;DHT22;37916;52.160;21.066;2023-05-07T03:15:40;5.10;93.80
35244;DHT22;37916;52.160;21.066;2023-05-07T03:25:41;5.20;93.80
35244;DHT22;37916;52.160;21.066;2023-05-07T03:35:41;5.20;93.90
35244;DHT22;37916;52.160;21.066;2023-05-07T03:45:42;5.20;93.90
35244;DHT22;37916;52.160;21.066;2023-05-07T03:55:42;5.30;93.90
35244;DHT22;37916;52.160;21.066;2023-05-07T04:05:43;5.10;93.90
35244;DHT22;37916;52.160;21.066;2023-05-07T04:15:44;5.30;93.90
35244;DHT22;37916;52.160;21.066;2023-05-07T04:25:46;5.40;93.90
35244;DHT22;37916;52.160;21.066;2023-05-07T04:35:47;5.20;93.90
35244;DHT22;37916;52.160;21.066;2023-05-07T04:45:47;5.30;93.90
35244;DHT22;37916;52.160;21.066;2023-05-07T04:55:54;5.30;93.90
35244;DHT22;37916;52.160;21.066;2023-05-07T05:05:55;5.40;93.90
35244;DHT22;37916;52.160;21.066;2023-05-07T05:15:57;5.30;93.90
35244;DHT22;37916;52.160;21.066;2023-05-07T05:25:58;5.50;93.90
35244;DHT22;37916;52.160;21.066;2023-05-07T05:35:58;5.70;93.90
35244;DHT22;37916;52.160;21.066;2023-05-07T05:45:59;5.90;94.00
35244;DHT22;37916;52.160;21.066;2023-05-07T05:56:00;6.10;94.00
35244;DHT22;37916;52.160;21.066;2023-05-07T06:06:01;6.30;94.00
35244;DHT22;37916;52.160;21.066;2023-05-07T06:16:01;6.60;94.00
35244;DHT22;37916;52.160;21.066;2023-05-07T06:26:02;6.80;94.00
35244;DHT22;37916;52.160;21.066;2023-05-07T06:36:03;7.00;94.00
35244;DHT22;37916;52.160;21.066;2023-05-07T06:46:04;7.10;94.00
35244;DHT22;37916;52.160;21.066;2023-05-07T06:56:04;7.40;94.00
35244;DHT22;37916;52.160;21.066;2023-05-07T07:06:08;7.60;94.00
35244;DHT22;37916;52.160;21.066;2023-05-07T07:16:11;7.50;94.00
35244;DHT22;37916;52.160;21.066;2023-05-07T07:26:12;7.50;94.00
35244;DHT22;37916;52.160;21.066;2023-05-07T07:36:15;7.50;94.00
35244;DHT22;37916;52.160;21.066;2023-05-07T07:46:16;7.70;94.00
35244;DHT22;37916;52.160;21.066;2023-05-07T07:56:17;7.70;94.00
35244;DHT22;37916;52.160;21.066;2023-05-07T08:06:17;7.50;94.00
35244;DHT22;37916;52.160;21.066;2023-05-07T08:16:18;7.60;94.00
35244;DHT22;37916;52.160;21.066;2023-05-07T08:26:18;8.40;94.00
35244;DHT22;37916;52.160;21.066;2023-05-07T08:36:19;8.10;94.00
35244;DHT22;37916;52.160;21.066;2023-05-07T08:46:20;7.80;94.00
35244;DHT22;37916;52.160;21.066;2023-05-07T08:56:21;8.40;94.00
35244;DHT22;37916;52.160;21.066;2023-05-07T09:06:21;8.30;94.00
35244;DHT22;37916;52.160;21.066;2023-05-07T09:16:23;7.90;94.00
35244;DHT22;37916;52.160;21.066;2023-05-07T09:26:24;8.50;94.00
35244;DHT22;37916;52.160;21.066;2023-05-07T09:36:25;8.50;94.00
35244;DHT22;37916;52.160;21.066;2023-05-07T09:46:30;8.60;94.10
35244;DHT22;37916;52.160;21.066;2023-05-07T09:56:31;8.40;94.00
35244;DHT22;37916;52.160;21.066;2023-05-07T10:06:32;9.20;94.00
35244;DHT22;37916;52.160;21.066;2023-05-07T10:16:34;9.00;94.10
35244;DHT22;37916;52.160;21.066;2023-05-07T10:26:38;9.40;93.40
35244;DHT22;37916;52.160;21.066;2023-05-07T10:36:38;9.80;71.80
35244;DHT22;37916;52.160;21.066;2023-05-07T10:46:39;9.90;68.50
35244;DHT22;37916;52.160;21.066;2023-05-07T10:56:40;9.70;68.30
35244;DHT22;37916;52.160;21.066;2023-05-07T11:07:09;10.50;67.50
35244;DHT22;37916;52.160;21.066;2023-05-07T11:17:04;10.20;64.50
35244;DHT22;37916;52.160;21.066;2023-05-07T11:27:05;10.60;63.40
35244;DHT22;37916;52.160;21.066;2023-05-07T11:37:06;10.90;63.20
35244;DHT22;37916;52.160;21.066;2023-05-07T11:47:06;11.40;61.60
35244;DHT22;37916;52.160;21.066;2023-05-07T11:57:13;11.40;60.90
35244;DHT22;37916;52.160;21.066;2023-05-07T12:07:15;11.40;58.80
35244;DHT22;37916;52.160;21.066;2023-05-07T12:17:15;11.80;58.90
35244;DHT22;37916;52.160;21.066;2023-05-07T12:27:17;11.50;60.60
35244;DHT22;37916;52.160;21.066;2023-05-07T12:37:22;11.50;59.80
35244;DHT22;37916;52.160;21.066;2023-05-07T12:47:23;11.60;59.10
35244;DHT22;37916;52.160;21.066;2023-05-07T12:57:24;11.60;59.60
35244;DHT22;37916;52.160;21.066;2023-05-07T13:07:24;11.40;58.80
35244;DHT22;37916;52.160;21.066;2023-05-07T13:17:25;11.70;57.70
35244;DHT22;37916;52.160;21.066;2023-05-07T13:27:26;11.90;59.30
35244;DHT22;37916;52.160;21.066;2023-05-07T13:37:26;12.00;58.50
35244;DHT22;37916;52.160;21.066;2023-05-07T13:47:27;11.70;59.90
35244;DHT22;37916;52.160;21.066;2023-05-07T13:57:29;11.60;57.10
35244;DHT22;37916;52.160;21.066;2023-05-07T14:07:30;11.30;57.60
35244;DHT22;37916;52.160;21.066;2023-05-07T14:17:30;11.30;57.10
35244;DHT22;37916;52.160;21.066;2023-05-07T14:27:31;11.30;59.80
35244;DHT22;37916;52.160;21.066;2023-05-07T14:37:37;11.60;56.90
35244;DHT22;37916;52.160;21.066;2023-05-07T14:47:38;11.40;56.10
35244;DHT22;37916;52.160;21.066;2023-05-07T14:57:38;11.40;55.10
35244;DHT22;37916;52.160;21.066;2023-05-07T15:07:40;11.70;53.70
35244;DHT22;37916;52.160;21.066;2023-05-07T15:17:40;11.80;54.60
35244;DHT22;37916;52.160;21.066;2023-05-07T15:27:44;11.20;55.40
35244;DHT22;37916;52.160;21.066;2023-05-07T15:37:47;11.30;56.30
35244;DHT22;37916;52.160;21.066;2023-05-07T15:47:50;11.30;55.40
35244;DHT22;37916;52.160;21.066;2023-05-07T15:57:50;11.30;53.80
35244;DHT22;37916;52.160;21.066;2023-05-07T16:07:51;11.20;55.80
35244;DHT22;37916;52.160;21.066;2023-05-07T16:17:52;11.20;55.00
35244;DHT22;37916;52.160;21.066;2023-05-07T16:27:56;11.10;55.20
35244;DHT22;37916;52.160;21.066;2023-05-07T16:37:57;10.90;56.40
35244;DHT22;37916;52.160;21.066;2023-05-07T16:48:04;10.90;58.50
35244;DHT22;37916;52.160;21.066;2023-05-07T16:58:08;10.80;58.50
35244;DHT22;37916;52.160;21.066;2023-05-07T17:08:09;10.70;58.30
35244;DHT22;37916;52.160;21.066;2023-05-07T17:18:19;10.50;61.30
35244;DHT22;37916;52.160;21.066;2023-05-07T17:28:19;10.30;61.80
35244;DHT22;37916;52.160;21.066;2023-05-07T17:38:20;10.20;60.50
35244;DHT22;37916;52.160;21.066;2023-05-07T18:19:04;8.90;68.10
35244;DHT22;37916;52.160;21.066;2023-05-07T18:29:25;8.60;69.70
35244;DHT22;37916;52.160;21.066;2023-05-07T19:00:19;7.60;75.20
35244;DHT22;37916;52.160;21.066;2023-05-07T19:10:20;7.20;75.50
35244;DHT22;37916;52.160;21.066;2023-05-07T19:40:43;6.60;77.90
35244;DHT22;37916;52.160;21.066;2023-05-07T19:50:46;6.30;79.10
35244;DHT22;37916;52.160;21.066;2023-05-07T20:00:47;6.20;79.70
35244;DHT22;37916;52.160;21.066;2023-05-07T20:10:48;6.10;80.20
35244;DHT22;37916;52.160;21.066;2023-05-07T20:20:51;5.90;81.30
35244;DHT22;37916;52.160;21.066;2023-05-07T20:30:52;5.70;81.80
35244;DHT22;37916;52.160;21.066;2023-05-07T20:40:53;5.50;82.40
35244;DHT22;37916;52.160;21.066;2023-05-07T20:50:54;5.40;82.70
35244;DHT22;37916;52.160;21.066;2023-05-07T21:00:55;4.90;84.20
35244;DHT22;37916;52.160;21.066;2023-05-07T21:10:55;4.80;85.60
35244;DHT22;37916;52.160;21.066;2023-05-07T21:20:56;4.60;85.70
35244;DHT22;37916;52.160;21.066;2023-05-07T21:30:57;4.50;85.90
35244;DHT22;37916;52.160;21.066;2023-05-07T21:40:58;4.40;87.80
35244;DHT22;37916;52.160;21.066;2023-05-07T21:51:02;4.40;87.30
35244;DHT22;37916;52.160;21.066;2023-05-07T22:01:05;4.00;87.70
35244;DHT22;37916;52.160;21.066;2023-05-07T22:11:06;3.90;88.10
35244;DHT22;37916;52.160;21.066;2023-05-07T22:21:07;3.90;88.10
35244;DHT22;37916;52.160;21.066;2023-05-07T22:31:10;3.80;88.20
35244;DHT22;37916;52.160;21.066;2023-05-07T22:41:10;3.60;89.30
35244;DHT22;37916;52.160;21.066;2023-05-07T22:51:12;3.50;89.20
35244;DHT22;37916;52.160;21.066;2023-05-07T23:01:13;3.50;89.00
35244;DHT22;37916;52.160;21.066;2023-05-07T23:11:14;3.40;90.20
35244;DHT22;37916;52.160;21.066;2023-05-07T23:21:14;3.10;89.70
35244;DHT22;37916;52.160;21.066;2023-05-07T23:31:15;3.00;90.30
35244;DHT22;37916;52.160;21.066;2023-05-07T23:41:15;3.00;89.80
35244;DHT22;37916;52.160;21.066;2023-05-07T23:51:16;2.80;90.60
